sensor_id;sensor_type;location;lat;lon;timestamp;pressure;altitude;pressure_sealevel;temperature;humidity
7748;BME280;3918;42.564;23.164;2023-05-23T04:03:29;-11650.84;;;-142.29;100.00
7748;BME280;3918;42.564;23.164;2023-05-23T04:05:58;-11650.84;;;-142.29;100.00
7748;BME280;3918;42.564;23.164;2023-05-23T04:08:25;-11650.84;;;-142.29;100.00
7748;BME280;3918;42.564;23.164;2023-05-23T04:10:51;-11650.84;;;-142.29;89.64
7748;BME280;3918;42.564;23.164;2023-05-23T04:13:18;-11650.84;;;-142.29;61.38
7748;BME280;3918;42.564;23.164;2023-05-23T04:15:46;-11650.84;;;-142.29;51.33
7748;BME280;3918;42.564;23.164;2023-05-23T04:18:13;-11650.84;;;-142.29;47.30
7748;BME280;3918;42.564;23.164;2023-05-23T04:20:43;-11650.84;;;-142.29;45.41
7748;BME280;3918;42.564;23.164;2023-05-23T04:23:09;-11650.84;;;-142.29;43.59
7748;BME280;3918;42.564;23.164;2023-05-23T04:25:36;-11650.84;;;-142.29;42.22
7748;BME280;3918;42.564;23.164;2023-05-23T04:28:04;-11650.84;;;-142.29;39.96
7748;BME280;3918;42.564;23.164;2023-05-23T04:30:30;-11650.84;;;-142.29;40.70
7748;BME280;3918;42.564;23.164;2023-05-23T04:32:57;-11650.84;;;-142.29;38.76
7748;BME280;3918;42.564;23.164;2023-05-23T04:35:24;-11650.84;;;-142.29;37.00
7748;BME280;3918;42.564;23.164;2023-05-23T04:37:54;-11650.84;;;-142.29;37.27
7748;BME280;3918;42.564;23.164;2023-05-23T04:40:21;-11650.84;;;-142.29;35.66
7748;BME280;3918;42.564;23.164;2023-05-23T04:42:48;-11650.84;;;-142.29;36.70
7748;BME280;3918;42.564;23.164;2023-05-23T04:45:16;-11650.84;;;-142.29;34.97
7748;BME280;3918;42.564;23.164;2023-05-23T04:47:44;-11650.84;;;-142.29;34.29
7748;BME280;3918;42.564;23.164;2023-05-23T04:50:11;-11650.84;;;-142.29;34.52
7748;BME280;3918;42.564;23.164;2023-05-23T04:52:39;-11650.84;;;-142.29;33.55
7748;BME280;3918;42.564;23.164;2023-05-23T04:55:07;-11650.84;;;-142.29;32.87
7748;BME280;3918;42.564;23.164;2023-05-23T04:57:35;-11650.84;;;-142.29;32.78
7748;BME280;3918;42.564;23.164;2023-05-23T05:00:02;-11650.84;;;-142.29;32.30
7748;BME280;3918;42.564;23.164;2023-05-23T05:02:34;-11650.84;;;-142.29;32.61
7748;BME280;3918;42.564;23.164;2023-05-23T05:05:01;-11650.84;;;-142.29;31.23
7748;BME280;3918;42.564;23.164;2023-05-23T05:07:28;-11650.84;;;-142.29;31.69
7748;BME280;3918;42.564;23.164;2023-05-23T05:09:55;-11650.84;;;-142.29;32.07
7748;BME280;3918;42.564;23.164;2023-05-23T05:12:23;-11650.84;;;-142.29;33.20
7748;BME280;3918;42.564;23.164;2023-05-23T05:14:50;-11650.84;;;-142.29;32.30
7748;BME280;3918;42.564;23.164;2023-05-23T05:17:17;-11650.84;;;-142.29;32.19
7748;BME280;3918;42.564;23.164;2023-05-23T05:19:44;-11650.84;;;-142.29;31.91
7748;BME280;3918;42.564;23.164;2023-05-23T05:22:11;-11650.84;;;-142.29;32.48
7748;BME280;3918;42.564;23.164;2023-05-23T05:24:37;-11650.84;;;-142.29;31.48
7748;BME280;3918;42.564;23.164;2023-05-23T05:27:05;-11650.84;;;-142.29;31.77
7748;BME280;3918;42.564;23.164;2023-05-23T05:29:35;-11650.84;;;-142.29;32.33
7748;BME280;3918;42.564;23.164;2023-05-23T05:32:02;-11650.84;;;-142.29;32.70
7748;BME280;3918;42.564;23.164;2023-05-23T05:34:29;-11650.84;;;-142.29;31.21
7748;BME280;3918;42.564;23.164;2023-05-23T05:36:56;-11650.84;;;-142.29;30.69
7748;BME280;3918;42.564;23.164;2023-05-23T05:39:23;-11650.84;;;-142.29;31.23
7748;BME280;3918;42.564;23.164;2023-05-23T05:41:51;-11650.84;;;-142.29;31.46
7748;BME280;3918;42.564;23.164;2023-05-23T05:44:18;-11650.84;;;-142.29;31.34
7748;BME280;3918;42.564;23.164;2023-05-23T05:46:46;-11650.84;;;-142.29;31.07
7748;BME280;3918;42.564;23.164;2023-05-23T05:49:14;-11650.84;;;-142.29;32.67
7748;BME280;3918;42.564;23.164;2023-05-23T05:51:40;-11650.84;;;-142.29;33.51
7748;BME280;3918;42.564;23.164;2023-05-23T05:54:07;-11650.84;;;-142.29;32.87
7748;BME280;3918;42.564;23.164;2023-05-23T05:56:35;-11650.84;;;-142.29;32.15
7748;BME280;3918;42.564;23.164;2023-05-23T05:59:01;-11650.84;;;-142.29;31.61
7748;BME280;3918;42.564;23.164;2023-05-23T06:01:28;-11650.84;;;-142.29;31.74
7748;BME280;3918;42.564;23.164;2023-05-23T06:03:56;-11650.84;;;-142.29;31.45
7748;BME280;3918;42.564;23.164;2023-05-23T06:06:23;-11650.84;;;-142.29;31.54
7748;BME280;3918;42.564;23.164;2023-05-23T06:08:50;-11650.84;;;-142.29;31.96
7748;BME280;3918;42.564;23.164;2023-05-23T06:11:17;-11650.84;;;-142.29;31.85
7748;BME280;3918;42.564;23.164;2023-05-23T06:13:45;-11650.84;;;-142.29;32.10
7748;BME280;3918;42.564;23.164;2023-05-23T06:16:12;-11650.84;;;-142.29;31.67
7748;BME280;3918;42.564;23.164;2023-05-23T06:18:39;-11650.84;;;-142.29;33.55
7748;BME280;3918;42.564;23.164;2023-05-23T06:21:08;-11650.84;;;-142.29;32.65
7748;BME280;3918;42.564;23.164;2023-05-23T06:23:34;-11650.84;;;-142.29;31.67
7748;BME280;3918;42.564;23.164;2023-05-23T06:26:01;-11650.84;;;-142.29;31.45
7748;BME280;3918;42.564;23.164;2023-05-23T06:28:32;-11650.84;;;-142.29;33.13
7748;BME280;3918;42.564;23.164;2023-05-23T06:30:59;-11650.84;;;-142.29;32.73
7748;BME280;3918;42.564;23.164;2023-05-23T06:33:27;-11650.84;;;-142.29;33.24
7748;BME280;3918;42.564;23.164;2023-05-23T06:35:55;-11650.84;;;-142.29;33.54
7748;BME280;3918;42.564;23.164;2023-05-23T06:38:25;-11650.84;;;-142.29;34.45
7748;BME280;3918;42.564;23.164;2023-05-23T06:40:52;-11650.84;;;-142.29;34.75
7748;BME280;3918;42.564;23.164;2023-05-23T06:43:22;-11650.84;;;-142.29;35.84
7748;BME280;3918;42.564;23.164;2023-05-23T06:45:49;-11650.84;;;-142.29;36.97
7748;BME280;3918;42.564;23.164;2023-05-23T06:48:15;-11650.84;;;-142.29;37.74
7748;BME280;3918;42.564;23.164;2023-05-23T06:50:42;-11650.84;;;-142.29;37.14
7748;BME280;3918;42.564;23.164;2023-05-23T06:53:09;-11650.84;;;-142.29;35.64
7748;BME280;3918;42.564;23.164;2023-05-23T06:55:37;-11650.84;;;-142.29;35.31
7748;BME280;3918;42.564;23.164;2023-05-23T06:58:04;-11650.84;;;-142.29;34.91
7748;BME280;3918;42.564;23.164;2023-05-23T07:00:31;-11650.84;;;-142.29;34.67
7748;BME280;3918;42.564;23.164;2023-05-23T07:02:57;-11650.84;;;-142.29;32.79
7748;BME280;3918;42.564;23.164;2023-05-23T07:05:26;-11650.84;;;-142.29;33.04
7748;BME280;3918;42.564;23.164;2023-05-23T07:07:53;-11650.84;;;-142.29;33.48
7748;BME280;3918;42.564;23.164;2023-05-23T07:10:20;-11650.84;;;-142.29;32.56
7748;BME280;3918;42.564;23.164;2023-05-23T07:12:48;-11650.84;;;-142.29;32.98
7748;BME280;3918;42.564;23.164;2023-05-23T07:15:15;-11650.84;;;-142.29;32.37
7748;BME280;3918;42.564;23.164;2023-05-23T07:17:42;-11650.84;;;-142.29;33.41
7748;BME280;3918;42.564;23.164;2023-05-23T07:20:09;-11650.84;;;-142.29;33.21
7748;BME280;3918;42.564;23.164;2023-05-23T07:22:36;-11650.84;;;-142.29;33.08
7748;BME280;3918;42.564;23.164;2023-05-23T07:25:03;-11650.84;;;-142.29;32.85
7748;BME280;3918;42.564;23.164;2023-05-23T07:27:30;-11650.84;;;-142.29;33.48
7748;BME280;3918;42.564;23.164;2023-05-23T07:29:58;-11650.84;;;-142.29;32.74
7748;BME280;3918;42.564;23.164;2023-05-23T07:32:25;-11650.84;;;-142.29;35.38
7748;BME280;3918;42.564;23.164;2023-05-23T07:34:52;-11650.84;;;-142.29;35.87
7748;BME280;3918;42.564;23.164;2023-05-23T07:37:19;-11650.84;;;-142.29;34.45
7748;BME280;3918;42.564;23.164;2023-05-23T07:39:46;-11650.84;;;-142.29;34.81
7748;BME280;3918;42.564;23.164;2023-05-23T07:42:13;-11650.84;;;-142.29;34.39
7748;BME280;3918;42.564;23.164;2023-05-23T07:44:40;-11650.84;;;-142.29;33.55
7748;BME280;3918;42.564;23.164;2023-05-23T07:47:08;-11650.84;;;-142.29;33.82
7748;BME280;3918;42.564;23.164;2023-05-23T07:49:35;-11650.84;;;-142.29;37.76
7748;BME280;3918;42.564;23.164;2023-05-23T07:52:02;-11650.84;;;-142.29;37.38
7748;BME280;3918;42.564;23.164;2023-05-23T07:54:29;-11650.84;;;-142.29;38.06
7748;BME280;3918;42.564;23.164;2023-05-23T07:56:56;-11650.84;;;-142.29;37.11
7748;BME280;3918;42.564;23.164;2023-05-23T07:59:22;-11650.84;;;-142.29;37.19
7748;BME280;3918;42.564;23.164;2023-05-23T08:01:49;-11650.84;;;-142.29;33.00
7748;BME280;3918;42.564;23.164;2023-05-23T08:04:17;-11650.84;;;-142.29;33.10
7748;BME280;3918;42.564;23.164;2023-05-23T08:06:44;-11650.84;;;-142.29;35.46
7748;BME280;3918;42.564;23.164;2023-05-23T08:09:13;-11650.84;;;-142.29;33.81
7748;BME280;3918;42.564;23.164;2023-05-23T08:11:40;-11650.84;;;-142.29;35.30
7748;BME280;3918;42.564;23.164;2023-05-23T08:14:06;-11650.84;;;-142.29;33.56
7748;BME280;3918;42.564;23.164;2023-05-23T08:16:33;-11650.84;;;-142.29;32.70
7748;BME280;3918;42.564;23.164;2023-05-23T08:19:00;-11650.84;;;-142.29;31.94
7748;BME280;3918;42.564;23.164;2023-05-23T08:21:28;-11650.84;;;-142.29;31.58
7748;BME280;3918;42.564;23.164;2023-05-23T08:23:56;-11650.84;;;-142.29;31.62
7748;BME280;3918;42.564;23.164;2023-05-23T08:26:23;-11650.84;;;-142.29;31.03
7748;BME280;3918;42.564;23.164;2023-05-23T08:28:51;-11650.84;;;-142.29;34.39
7748;BME280;3918;42.564;23.164;2023-05-23T08:31:18;-11650.84;;;-142.29;32.89
7748;BME280;3918;42.564;23.164;2023-05-23T08:33:45;-11650.84;;;-142.29;32.92
7748;BME280;3918;42.564;23.164;2023-05-23T08:36:11;-11650.84;;;-142.29;36.88
7748;BME280;3918;42.564;23.164;2023-05-23T08:38:40;-11650.84;;;-142.29;39.42
7748;BME280;3918;42.564;23.164;2023-05-23T08:41:11;-11650.84;;;-142.29;39.08
7748;BME280;3918;42.564;23.164;2023-05-23T08:43:41;-11650.84;;;-142.29;39.30
7748;BME280;3918;42.564;23.164;2023-05-23T08:46:08;-11650.84;;;-142.29;40.66
7748;BME280;3918;42.564;23.164;2023-05-23T08:48:37;-11650.84;;;-142.29;37.47
7748;BME280;3918;42.564;23.164;2023-05-23T08:51:06;-11650.84;;;-142.29;40.68
7748;BME280;3918;42.564;23.164;2023-05-23T08:53:35;-11650.84;;;-142.29;41.37
7748;BME280;3918;42.564;23.164;2023-05-23T08:56:05;-11650.84;;;-142.29;41.77
7748;BME280;3918;42.564;23.164;2023-05-23T08:58:33;-11650.84;;;-142.29;43.48
7748;BME280;3918;42.564;23.164;2023-05-23T09:01:01;-11650.84;;;-142.29;43.34
7748;BME280;3918;42.564;23.164;2023-05-23T09:03:28;-11650.84;;;-142.29;44.19
7748;BME280;3918;42.564;23.164;2023-05-23T09:05:55;-11650.84;;;-142.29;42.26
7748;BME280;3918;42.564;23.164;2023-05-23T09:08:23;-11650.84;;;-142.29;43.86
7748;BME280;3918;42.564;23.164;2023-05-23T09:10:50;-11650.84;;;-142.29;44.78
7748;BME280;3918;42.564;23.164;2023-05-23T09:13:19;-11650.84;;;-142.29;47.47
7748;BME280;3918;42.564;23.164;2023-05-23T09:16:04;-11650.84;;;-142.29;45.92
7748;BME280;3918;42.564;23.164;2023-05-23T09:18:36;-11650.84;;;-142.29;42.10
7748;BME280;3918;42.564;23.164;2023-05-23T09:21:03;-11650.84;;;-142.29;44.16
7748;BME280;3918;42.564;23.164;2023-05-23T09:23:30;-11650.84;;;-142.29;44.02
7748;BME280;3918;42.564;23.164;2023-05-23T09:26:01;-11650.84;;;-142.29;46.53
7748;BME280;3918;42.564;23.164;2023-05-23T09:28:30;-11650.84;;;-142.29;43.70
7748;BME280;3918;42.564;23.164;2023-05-23T09:30:58;-11650.84;;;-142.29;37.98
7748;BME280;3918;42.564;23.164;2023-05-23T09:33:33;-11650.84;;;-142.29;39.07
7748;BME280;3918;42.564;23.164;2023-05-23T09:36:02;-11650.84;;;-142.29;39.53
7748;BME280;3918;42.564;23.164;2023-05-23T09:38:29;-11650.84;;;-142.29;37.49
7748;BME280;3918;42.564;23.164;2023-05-23T09:40:58;-11650.84;;;-142.29;37.01
7748;BME280;3918;42.564;23.164;2023-05-23T09:43:25;-11650.84;;;-142.29;36.87
7748;BME280;3918;42.564;23.164;2023-05-23T09:45:54;-11650.84;;;-142.29;37.28
7748;BME280;3918;42.564;23.164;2023-05-23T09:48:27;-11650.84;;;-142.29;37.44
7748;BME280;3918;42.564;23.164;2023-05-23T09:50:55;-11650.84;;;-142.29;37.05
7748;BME280;3918;42.564;23.164;2023-05-23T09:53:22;-11650.84;;;-142.29;37.75
7748;BME280;3918;42.564;23.164;2023-05-23T09:55:50;-11650.84;;;-142.29;36.14
7748;BME280;3918;42.564;23.164;2023-05-23T09:58:18;-11650.84;;;-142.29;36.61
7748;BME280;3918;42.564;23.164;2023-05-23T10:00:46;-11650.84;;;-142.29;35.22
7748;BME280;3918;42.564;23.164;2023-05-23T10:03:18;-11650.84;;;-142.29;35.16
7748;BME280;3918;42.564;23.164;2023-05-23T10:05:49;-11650.84;;;-142.29;35.79
7748;BME280;3918;42.564;23.164;2023-05-23T10:08:19;-11650.84;;;-142.29;35.35
7748;BME280;3918;42.564;23.164;2023-05-23T10:14:00;-11650.84;;;-142.29;35.49
7748;BME280;3918;42.564;23.164;2023-05-23T10:16:33;-11650.84;;;-142.29;36.17
7748;BME280;3918;42.564;23.164;2023-05-23T10:19:06;-11650.84;;;-142.29;35.71
7748;BME280;3918;42.564;23.164;2023-05-23T10:21:41;-11650.84;;;-142.29;37.01
7748;BME280;3918;42.564;23.164;2023-05-23T10:24:10;-11650.84;;;-142.29;39.06
7748;BME280;3918;42.564;23.164;2023-05-23T10:26:37;-11650.84;;;-142.29;40.08
7748;BME280;3918;42.564;23.164;2023-05-23T10:29:05;-11650.84;;;-142.29;37.20
7748;BME280;3918;42.564;23.164;2023-05-23T10:31:32;-11650.84;;;-142.29;39.59
7748;BME280;3918;42.564;23.164;2023-05-23T10:34:05;-11650.84;;;-142.29;40.74
7748;BME280;3918;42.564;23.164;2023-05-23T10:36:42;-11650.84;;;-142.29;38.04
7748;BME280;3918;42.564;23.164;2023-05-23T10:39:18;-11650.84;;;-142.29;37.82
7748;BME280;3918;42.564;23.164;2023-05-23T10:41:51;-11650.84;;;-142.29;37.16
7748;BME280;3918;42.564;23.164;2023-05-23T10:44:24;-11650.84;;;-142.29;36.00
7748;BME280;3918;42.564;23.164;2023-05-23T10:46:52;-11650.84;;;-142.29;36.93
7748;BME280;3918;42.564;23.164;2023-05-23T10:49:20;-11650.84;;;-142.29;38.14
7748;BME280;3918;42.564;23.164;2023-05-23T10:51:49;-11650.84;;;-142.29;36.71
7748;BME280;3918;42.564;23.164;2023-05-23T10:54:17;-11650.84;;;-142.29;37.46
7748;BME280;3918;42.564;23.164;2023-05-23T10:56:45;-11650.84;;;-142.29;38.14
7748;BME280;3918;42.564;23.164;2023-05-23T10:59:19;-11650.84;;;-142.29;40.02
7748;BME280;3918;42.564;23.164;2023-05-23T11:01:49;-11650.84;;;-142.29;38.92
7748;BME280;3918;42.564;23.164;2023-05-23T11:04:24;-11650.84;;;-142.29;38.79
7748;BME280;3918;42.564;23.164;2023-05-23T11:06:53;-11650.84;;;-142.29;37.68
7748;BME280;3918;42.564;23.164;2023-05-23T11:09:20;-11650.84;;;-142.29;37.24
7748;BME280;3918;42.564;23.164;2023-05-23T11:11:54;-11650.84;;;-142.29;38.65
7748;BME280;3918;42.564;23.164;2023-05-23T11:14:33;-11650.84;;;-142.29;37.18
7748;BME280;3918;42.564;23.164;2023-05-23T11:17:14;-11650.84;;;-142.29;38.42
7748;BME280;3918;42.564;23.164;2023-05-23T11:19:55;-11650.84;;;-142.29;38.87
7748;BME280;3918;42.564;23.164;2023-05-23T11:22:27;-11650.84;;;-142.29;37.48
7748;BME280;3918;42.564;23.164;2023-05-23T11:24:55;-11650.84;;;-142.29;37.17
7748;BME280;3918;42.564;23.164;2023-05-23T11:27:26;-11650.84;;;-142.29;37.23
7748;BME280;3918;42.564;23.164;2023-05-23T11:29:58;-11650.84;;;-142.29;38.04
7748;BME280;3918;42.564;23.164;2023-05-23T11:32:27;-11650.84;;;-142.29;37.25
7748;BME280;3918;42.564;23.164;2023-05-23T11:34:55;-11650.84;;;-142.29;38.18
7748;BME280;3918;42.564;23.164;2023-05-23T11:37:24;-11650.84;;;-142.29;37.79
7748;BME280;3918;42.564;23.164;2023-05-23T11:39:53;-11650.84;;;-142.29;38.87
7748;BME280;3918;42.564;23.164;2023-05-23T11:42:20;-11650.84;;;-142.29;38.36
7748;BME280;3918;42.564;23.164;2023-05-23T11:44:48;-11650.84;;;-142.29;38.89
7748;BME280;3918;42.564;23.164;2023-05-23T11:47:14;-11650.84;;;-142.29;38.42
7748;BME280;3918;42.564;23.164;2023-05-23T11:49:43;-11650.84;;;-142.29;37.81
7748;BME280;3918;42.564;23.164;2023-05-23T11:52:10;-11650.84;;;-142.29;37.21
7748;BME280;3918;42.564;23.164;2023-05-23T11:54:39;-11650.84;;;-142.29;37.07
7748;BME280;3918;42.564;23.164;2023-05-23T11:57:07;-11650.84;;;-142.29;36.56
7748;BME280;3918;42.564;23.164;2023-05-23T11:59:34;-11650.84;;;-142.29;36.77
7748;BME280;3918;42.564;23.164;2023-05-23T12:02:01;-11650.84;;;-142.29;36.91
7748;BME280;3918;42.564;23.164;2023-05-23T12:04:28;-11650.84;;;-142.29;37.94
7748;BME280;3918;42.564;23.164;2023-05-23T12:06:55;-11650.84;;;-142.29;38.19
7748;BME280;3918;42.564;23.164;2023-05-23T12:09:22;-11650.84;;;-142.29;38.66
7748;BME280;3918;42.564;23.164;2023-05-23T12:11:50;-11650.84;;;-142.29;38.44
7748;BME280;3918;42.564;23.164;2023-05-23T12:14:18;-11650.84;;;-142.29;37.50
7748;BME280;3918;42.564;23.164;2023-05-23T12:16:45;-11650.84;;;-142.29;37.66
7748;BME280;3918;42.564;23.164;2023-05-23T12:19:12;-11650.84;;;-142.29;37.47
7748;BME280;3918;42.564;23.164;2023-05-23T12:21:41;-11650.84;;;-142.29;36.53
7748;BME280;3918;42.564;23.164;2023-05-23T12:24:15;-11650.84;;;-142.29;37.38
7748;BME280;3918;42.564;23.164;2023-05-23T12:26:50;-11650.84;;;-142.29;37.29
7748;BME280;3918;42.564;23.164;2023-05-23T12:29:27;-11650.84;;;-142.29;36.44
7748;BME280;3918;42.564;23.164;2023-05-23T12:31:54;-11650.84;;;-142.29;37.45
7748;BME280;3918;42.564;23.164;2023-05-23T12:34:23;-11650.84;;;-142.29;37.11
7748;BME280;3918;42.564;23.164;2023-05-23T12:36:53;-11650.84;;;-142.29;36.57
7748;BME280;3918;42.564;23.164;2023-05-23T12:39:23;-11650.84;;;-142.29;36.80
7748;BME280;3918;42.564;23.164;2023-05-23T12:41:52;-11650.84;;;-142.29;36.56
7748;BME280;3918;42.564;23.164;2023-05-23T12:44:21;-11650.84;;;-142.29;36.64
7748;BME280;3918;42.564;23.164;2023-05-23T12:46:48;-11650.84;;;-142.29;37.90
7748;BME280;3918;42.564;23.164;2023-05-23T12:49:15;-11650.84;;;-142.29;38.10
7748;BME280;3918;42.564;23.164;2023-05-23T12:51:42;-11650.84;;;-142.29;36.40
7748;BME280;3918;42.564;23.164;2023-05-23T12:54:09;-11650.84;;;-142.29;37.20
7748;BME280;3918;42.564;23.164;2023-05-23T12:56:35;-11650.84;;;-142.29;37.58
7748;BME280;3918;42.564;23.164;2023-05-23T12:59:02;-11650.84;;;-142.29;38.01
7748;BME280;3918;42.564;23.164;2023-05-23T13:01:30;-11650.84;;;-142.29;36.46
7748;BME280;3918;42.564;23.164;2023-05-23T13:03:58;-11650.84;;;-142.29;36.90
7748;BME280;3918;42.564;23.164;2023-05-23T13:06:26;-11650.84;;;-142.29;35.61
7748;BME280;3918;42.564;23.164;2023-05-23T13:08:53;-11650.84;;;-142.29;35.47
7748;BME280;3918;42.564;23.164;2023-05-23T13:11:20;-11650.84;;;-142.29;35.53
7748;BME280;3918;42.564;23.164;2023-05-23T13:13:47;-11650.84;;;-142.29;37.25
7748;BME280;3918;42.564;23.164;2023-05-23T13:16:14;-11650.84;;;-142.29;36.16
7748;BME280;3918;42.564;23.164;2023-05-23T13:18:42;-11650.84;;;-142.29;37.30
7748;BME280;3918;42.564;23.164;2023-05-23T13:21:09;-11650.84;;;-142.29;36.52
7748;BME280;3918;42.564;23.164;2023-05-23T13:23:36;-11650.84;;;-142.29;37.70
7748;BME280;3918;42.564;23.164;2023-05-23T13:26:03;-11650.84;;;-142.29;38.28
7748;BME280;3918;42.564;23.164;2023-05-23T13:28:31;-11650.84;;;-142.29;38.36
7748;BME280;3918;42.564;23.164;2023-05-23T13:30:58;-11650.84;;;-142.29;39.18
7748;BME280;3918;42.564;23.164;2023-05-23T13:33:25;-11650.84;;;-142.29;37.85
7748;BME280;3918;42.564;23.164;2023-05-23T13:35:53;-11650.84;;;-142.29;37.24
7748;BME280;3918;42.564;23.164;2023-05-23T13:38:20;-11650.84;;;-142.29;36.98
7748;BME280;3918;42.564;23.164;2023-05-23T13:40:47;-11650.84;;;-142.29;36.89
7748;BME280;3918;42.564;23.164;2023-05-23T13:43:16;-11650.84;;;-142.29;37.47
7748;BME280;3918;42.564;23.164;2023-05-23T13:45:42;-11650.84;;;-142.29;38.25
7748;BME280;3918;42.564;23.164;2023-05-23T13:48:10;-11650.84;;;-142.29;39.29
7748;BME280;3918;42.564;23.164;2023-05-23T13:50:36;-11650.84;;;-142.29;37.96
7748;BME280;3918;42.564;23.164;2023-05-23T13:53:05;-11650.84;;;-142.29;37.35
7748;BME280;3918;42.564;23.164;2023-05-23T13:55:38;-11650.84;;;-142.29;37.47
7748;BME280;3918;42.564;23.164;2023-05-23T13:58:05;-11650.84;;;-142.29;36.74
7748;BME280;3918;42.564;23.164;2023-05-23T14:00:32;-11650.84;;;-142.29;37.04
7748;BME280;3918;42.564;23.164;2023-05-23T14:02:59;-11650.84;;;-142.29;37.71
7748;BME280;3918;42.564;23.164;2023-05-23T14:05:26;-11650.84;;;-142.29;37.68
7748;BME280;3918;42.564;23.164;2023-05-23T14:07:53;-11650.84;;;-142.29;37.63
7748;BME280;3918;42.564;23.164;2023-05-23T14:10:21;-11650.84;;;-142.29;37.74
7748;BME280;3918;42.564;23.164;2023-05-23T14:12:48;-11650.84;;;-142.29;38.17
7748;BME280;3918;42.564;23.164;2023-05-23T14:15:15;-11650.84;;;-142.29;38.86
7748;BME280;3918;42.564;23.164;2023-05-23T14:17:42;-11650.84;;;-142.29;39.79
7748;BME280;3918;42.564;23.164;2023-05-23T14:20:10;-11650.84;;;-142.29;40.45
7748;BME280;3918;42.564;23.164;2023-05-23T14:22:37;-11650.84;;;-142.29;40.17
7748;BME280;3918;42.564;23.164;2023-05-23T14:25:05;-11650.84;;;-142.29;39.92
7748;BME280;3918;42.564;23.164;2023-05-23T14:27:33;-11650.84;;;-142.29;40.26
7748;BME280;3918;42.564;23.164;2023-05-23T14:30:00;-11650.84;;;-142.29;39.04
7748;BME280;3918;42.564;23.164;2023-05-23T14:32:27;-11650.84;;;-142.29;40.83
7748;BME280;3918;42.564;23.164;2023-05-23T14:34:54;-11650.84;;;-142.29;41.29
7748;BME280;3918;42.564;23.164;2023-05-23T14:37:21;-11650.84;;;-142.29;41.72
7748;BME280;3918;42.564;23.164;2023-05-23T14:39:48;-11650.84;;;-142.29;41.90
7748;BME280;3918;42.564;23.164;2023-05-23T14:42:15;-11650.84;;;-142.29;41.99
7748;BME280;3918;42.564;23.164;2023-05-23T14:44:43;-11650.84;;;-142.29;47.05
7748;BME280;3918;42.564;23.164;2023-05-23T14:47:10;-11650.84;;;-142.29;51.14
7748;BME280;3918;42.564;23.164;2023-05-23T14:49:36;-11650.84;;;-142.29;60.12
7748;BME280;3918;42.564;23.164;2023-05-23T14:52:03;-11650.84;;;-142.29;66.58
7748;BME280;3918;42.564;23.164;2023-05-23T14:54:30;-11650.84;;;-142.29;67.65
7748;BME280;3918;42.564;23.164;2023-05-23T14:56:57;-11650.84;;;-142.29;70.10
7748;BME280;3918;42.564;23.164;2023-05-23T14:59:24;-11650.84;;;-142.29;69.85
7748;BME280;3918;42.564;23.164;2023-05-23T15:01:54;-11650.84;;;-142.29;71.92
7748;BME280;3918;42.564;23.164;2023-05-23T15:04:21;-11650.84;;;-142.29;73.18
7748;BME280;3918;42.564;23.164;2023-05-23T15:06:48;-11650.84;;;-142.29;75.17
7748;BME280;3918;42.564;23.164;2023-05-23T15:09:15;-11650.84;;;-142.29;77.25
7748;BME280;3918;42.564;23.164;2023-05-23T15:11:43;-11650.84;;;-142.29;80.26
7748;BME280;3918;42.564;23.164;2023-05-23T15:14:11;-11650.84;;;-142.29;80.15
7748;BME280;3918;42.564;23.164;2023-05-23T15:16:38;-11650.84;;;-142.29;81.81
7748;BME280;3918;42.564;23.164;2023-05-23T15:19:06;-11650.84;;;-142.29;82.24
7748;BME280;3918;42.564;23.164;2023-05-23T15:21:33;-11650.84;;;-142.29;84.89
7748;BME280;3918;42.564;23.164;2023-05-23T15:24:00;-11650.84;;;-142.29;86.79
7748;BME280;3918;42.564;23.164;2023-05-23T15:26:27;-11650.84;;;-142.29;86.59
7748;BME280;3918;42.564;23.164;2023-05-23T15:28:55;-11650.84;;;-142.29;87.46
7748;BME280;3918;42.564;23.164;2023-05-23T15:31:22;-11650.84;;;-142.29;89.49
7748;BME280;3918;42.564;23.164;2023-05-23T15:33:49;-11650.84;;;-142.29;88.08
7748;BME280;3918;42.564;23.164;2023-05-23T15:36:17;-11650.84;;;-142.29;89.03
7748;BME280;3918;42.564;23.164;2023-05-23T15:38:44;-11650.84;;;-142.29;85.04
7748;BME280;3918;42.564;23.164;2023-05-23T15:41:10;-11650.84;;;-142.29;85.51
7748;BME280;3918;42.564;23.164;2023-05-23T15:43:37;-11650.84;;;-142.29;85.31
7748;BME280;3918;42.564;23.164;2023-05-23T15:46:04;-11650.84;;;-142.29;67.17
7748;BME280;3918;42.564;23.164;2023-05-23T15:48:31;-11650.84;;;-142.29;55.46
7748;BME280;3918;42.564;23.164;2023-05-23T15:50:58;-11650.84;;;-142.29;54.48
7748;BME280;3918;42.564;23.164;2023-05-23T15:53:26;-11650.84;;;-142.29;53.16
7748;BME280;3918;42.564;23.164;2023-05-23T15:55:52;-11650.84;;;-142.29;52.35
7748;BME280;3918;42.564;23.164;2023-05-23T15:58:19;-11650.84;;;-142.29;53.48
7748;BME280;3918;42.564;23.164;2023-05-23T16:00:46;-11650.84;;;-142.29;53.29
7748;BME280;3918;42.564;23.164;2023-05-23T16:03:13;-11650.84;;;-142.29;52.87
7748;BME280;3918;42.564;23.164;2023-05-23T16:05:40;-11650.84;;;-142.29;52.01
7748;BME280;3918;42.564;23.164;2023-05-23T16:08:07;-11650.84;;;-142.29;51.52
7748;BME280;3918;42.564;23.164;2023-05-23T16:10:35;-11650.84;;;-142.29;51.96
7748;BME280;3918;42.564;23.164;2023-05-23T16:13:02;-11650.84;;;-142.29;52.39
7748;BME280;3918;42.564;23.164;2023-05-23T16:15:28;-11650.84;;;-142.29;52.26
7748;BME280;3918;42.564;23.164;2023-05-23T16:17:55;-11650.84;;;-142.29;52.50
7748;BME280;3918;42.564;23.164;2023-05-23T16:20:22;-11650.84;;;-142.29;52.17
7748;BME280;3918;42.564;23.164;2023-05-23T16:22:49;-11650.84;;;-142.29;52.62
7748;BME280;3918;42.564;23.164;2023-05-23T16:25:16;-11650.84;;;-142.29;53.20
7748;BME280;3918;42.564;23.164;2023-05-23T16:27:44;-11650.84;;;-142.29;53.41
7748;BME280;3918;42.564;23.164;2023-05-23T16:30:11;-11650.84;;;-142.29;52.94
7748;BME280;3918;42.564;23.164;2023-05-23T16:32:37;-11650.84;;;-142.29;52.62
7748;BME280;3918;42.564;23.164;2023-05-23T16:35:05;-11650.84;;;-142.29;52.75
7748;BME280;3918;42.564;23.164;2023-05-23T16:37:32;-11650.84;;;-142.29;53.12
7748;BME280;3918;42.564;23.164;2023-05-23T16:39:58;-11650.84;;;-142.29;51.94
7748;BME280;3918;42.564;23.164;2023-05-23T16:42:25;-11650.84;;;-142.29;51.89
7748;BME280;3918;42.564;23.164;2023-05-23T16:44:53;-11650.84;;;-142.29;53.04
7748;BME280;3918;42.564;23.164;2023-05-23T16:47:20;-11650.84;;;-142.29;51.99
7748;BME280;3918;42.564;23.164;2023-05-23T16:49:47;-11650.84;;;-142.29;52.79